Bataysk, Russia
Current Conditions -  °F | °C
As of 11:00 AM on Sunday 26 Oct 2014 (Local Time) from URRR Reporting Station
Clear Clear  
Wind Chill: 15°   Ceiling: Unl
Heat Index: 28°   Visibility: 6mi
Dew Point: 16°   Wind: 20mph
Humidity: 59%   Direction: 100°E
Pressure: 30.62"   Gusts: 27mph
Location:  47.14°N, 39.75°E
Report Text: URRR 260800Z 10009G12MPS CAVOK M02/M09 Q1037 04CLRD70 NOSIG
Loading
Personal Weather Stations






























Interactive Weather Map
Tropical Storm Tracking
New forecast layout! Learn more

10-Day Weather Forecast

Advertisements
Track Severe Weather on mobile